createdAt,value
2019-05-09T00:01:28.536Z,4.30
2019-05-09T00:03:58.100Z,4.87
2019-05-09T00:06:27.942Z,4.90
2019-05-09T00:08:58.768Z,5.20
2019-05-09T00:11:28.473Z,4.60
2019-05-09T00:13:58.293Z,4.60
2019-05-09T00:16:27.918Z,4.80
2019-05-09T00:18:57.469Z,4.60
2019-05-09T00:21:33.291Z,4.50
2019-05-09T00:24:03.694Z,5.20
2019-05-09T00:26:34.017Z,4.77
2019-05-09T00:29:08.538Z,5.20
2019-05-09T00:32:06.628Z,5.40
2019-05-09T00:34:53.269Z,5.13
2019-05-09T00:37:43.245Z,5.13
2019-05-09T00:40:13.328Z,5.73
2019-05-09T00:42:44.053Z,7.03
2019-05-09T00:45:23.910Z,5.40
2019-05-09T00:47:53.949Z,6.40
2019-05-09T00:50:23.654Z,5.60
2019-05-09T00:52:53.826Z,6.30
2019-05-09T00:55:24.019Z,6.30
2019-05-09T00:57:53.622Z,5.63
2019-05-09T01:00:24.262Z,6.00
2019-05-09T01:02:54.290Z,6.27
2019-05-09T01:05:24.110Z,5.33
2019-05-09T01:07:53.934Z,4.93
2019-05-09T01:10:25.432Z,5.13
2019-05-09T01:12:55.331Z,4.60
2019-05-09T01:15:25.009Z,4.60
2019-05-09T01:17:55.101Z,5.80
2019-05-09T01:20:26.463Z,4.50
2019-05-09T01:22:56.060Z,4.40
2019-05-09T01:25:25.902Z,4.20
2019-05-09T01:27:55.894Z,4.10
2019-05-09T01:30:25.440Z,4.20
2019-05-09T01:33:20.114Z,4.30
2019-05-09T01:35:49.735Z,4.70
2019-05-09T01:38:19.385Z,4.37
2019-05-09T01:40:49.401Z,5.20
2019-05-09T01:43:19.144Z,4.70
2019-05-09T01:45:49.036Z,5.30
2019-05-09T01:48:18.609Z,5.00
2019-05-09T01:50:48.252Z,5.20
2019-05-09T01:53:23.887Z,5.37
2019-05-09T01:56:00.039Z,5.70
2019-05-09T01:58:30.984Z,5.60
2019-05-09T02:01:03.575Z,5.50
2019-05-09T02:03:33.647Z,6.70
2019-05-09T02:06:03.796Z,7.10
2019-05-09T02:08:34.557Z,6.87
2019-05-09T02:11:04.684Z,6.73
2019-05-09T02:13:34.744Z,7.40
2019-05-09T02:16:14.314Z,6.73
2019-05-09T02:18:58.521Z,7.93
2019-05-09T02:21:28.064Z,6.17
2019-05-09T02:23:57.653Z,5.80
2019-05-09T02:26:29.288Z,5.83
2019-05-09T02:28:58.853Z,7.07
2019-05-09T02:31:28.683Z,6.03
2019-05-09T02:33:58.333Z,6.50
2019-05-09T02:36:29.546Z,7.57
2019-05-09T02:38:59.281Z,7.27
2019-05-09T02:41:29.100Z,8.27
2019-05-09T02:43:58.770Z,7.77
2019-05-09T02:46:39.987Z,7.70
2019-05-09T02:49:09.637Z,7.83
2019-05-09T02:51:39.259Z,8.20
2019-05-09T02:54:10.121Z,8.47
2019-05-09T02:56:39.902Z,8.47
2019-05-09T02:59:18.951Z,9.10
2019-05-09T03:01:58.777Z,8.40
2019-05-09T03:04:28.750Z,8.27
2019-05-09T03:06:59.757Z,8.57
2019-05-09T03:09:29.676Z,8.40
2019-05-09T03:12:11.097Z,8.47
2019-05-09T03:14:30.680Z,8.37
2019-05-09T03:17:00.240Z,8.70
2019-05-09T03:19:30.623Z,10.17
2019-05-09T03:22:08.596Z,9.97
2019-05-09T03:24:39.370Z,10.77
2019-05-09T03:27:13.742Z,10.30
2019-05-09T03:29:48.878Z,10.60
2019-05-09T03:32:19.765Z,11.77
2019-05-09T03:34:49.512Z,11.77
2019-05-09T03:37:19.397Z,11.50
2019-05-09T03:39:49.623Z,12.60
2019-05-09T03:42:23.010Z,13.00
2019-05-09T03:44:51.013Z,14.20
2019-05-09T03:47:34.672Z,12.70
2019-05-09T03:50:08.350Z,12.50
2019-05-09T03:52:37.956Z,12.33
2019-05-09T03:55:10.075Z,13.13
2019-05-09T03:57:42.925Z,13.20
2019-05-09T04:00:12.957Z,13.47
2019-05-09T04:02:42.813Z,14.70
2019-05-09T04:05:12.481Z,15.20
2019-05-09T04:07:42.040Z,14.60
2019-05-09T04:10:11.795Z,13.20
2019-05-09T04:12:53.875Z,13.70
2019-05-09T04:15:18.867Z,12.33
2019-05-09T04:17:47.536Z,13.77
2019-05-09T04:20:17.667Z,14.73
2019-05-09T04:22:49.058Z,13.87
2019-05-09T04:25:22.883Z,14.57
2019-05-09T04:27:53.846Z,13.50
2019-05-09T04:30:23.490Z,13.83
2019-05-09T04:32:59.997Z,13.67
2019-05-09T04:35:29.649Z,13.40
2019-05-09T04:38:00.248Z,13.20
2019-05-09T04:40:32.073Z,12.90
2019-05-09T04:43:11.360Z,13.40
2019-05-09T04:45:41.509Z,14.70
2019-05-09T04:48:30.015Z,13.10
2019-05-09T04:51:00.788Z,13.60
2019-05-09T04:53:30.640Z,14.40
2019-05-09T04:56:07.229Z,13.13
2019-05-09T04:58:37.620Z,14.77
2019-05-09T05:01:28.159Z,14.07
2019-05-09T05:03:57.642Z,16.07
2019-05-09T05:06:28.060Z,14.70
2019-05-09T05:08:58.783Z,16.07
2019-05-09T05:11:28.390Z,16.47
2019-05-09T05:13:58.741Z,16.93
2019-05-09T05:16:30.595Z,16.87
2019-05-09T05:19:00.312Z,17.87
2019-05-09T05:21:29.901Z,18.67
2019-05-09T05:24:19.721Z,18.90
2019-05-09T05:26:49.588Z,19.13
2019-05-09T05:29:20.033Z,18.43
2019-05-09T05:31:50.762Z,20.57
2019-05-09T05:34:27.423Z,18.83
2019-05-09T05:36:58.230Z,19.53
2019-05-09T05:39:28.442Z,18.67
2019-05-09T05:41:58.890Z,17.83
2019-05-09T05:44:32.107Z,20.20
2019-05-09T05:47:17.899Z,20.07
2019-05-09T05:49:48.752Z,19.17
2019-05-09T05:52:18.658Z,20.63
2019-05-09T05:54:48.210Z,20.33
2019-05-09T05:57:17.849Z,21.53
2019-05-09T05:59:48.275Z,19.00
2019-05-09T06:02:18.035Z,20.37
2019-05-09T06:04:48.599Z,18.90
2019-05-09T06:07:19.711Z,18.33
2019-05-09T06:10:10.053Z,19.83
2019-05-09T06:12:39.721Z,17.83
2019-05-09T06:15:10.025Z,19.60
2019-05-09T06:17:39.756Z,19.20
2019-05-09T06:20:09.821Z,18.50
2019-05-09T06:22:39.539Z,19.93
2019-05-09T06:25:10.157Z,18.73
2019-05-09T06:27:42.349Z,19.70
2019-05-09T06:30:17.668Z,20.07
2019-05-09T06:32:47.858Z,19.67
2019-05-09T06:35:52.074Z,19.13
2019-05-09T06:38:22.199Z,19.37
2019-05-09T06:40:51.921Z,20.50
2019-05-09T06:43:24.148Z,19.13
2019-05-09T06:46:15.014Z,19.90
2019-05-09T06:49:21.331Z,19.90
2019-05-09T06:51:38.807Z,20.20
2019-05-09T06:54:08.856Z,19.80
2019-05-09T06:56:38.590Z,18.67
2019-05-09T06:59:08.172Z,17.50
2019-05-09T07:02:02.938Z,18.47
2019-05-09T07:04:38.027Z,17.40
2019-05-09T07:07:12.257Z,18.23
2019-05-09T07:09:48.136Z,18.47
2019-05-09T07:12:18.236Z,21.07
2019-05-09T07:14:48.672Z,21.00
2019-05-09T07:17:19.054Z,20.20
2019-05-09T07:19:49.219Z,19.80
2019-05-09T07:22:39.565Z,20.30
2019-05-09T07:25:21.137Z,19.87
2019-05-09T07:27:51.726Z,20.70
2019-05-09T07:30:44.910Z,21.53
2019-05-09T07:33:23.137Z,22.10
2019-05-09T07:35:53.513Z,20.90
2019-05-09T07:38:30.506Z,22.27
2019-05-09T07:41:01.180Z,22.40
2019-05-09T07:43:31.513Z,23.03
2019-05-09T07:46:23.657Z,22.37
2019-05-09T07:48:54.105Z,21.17
2019-05-09T07:51:23.934Z,21.07
2019-05-09T07:53:53.686Z,21.63
2019-05-09T07:56:23.300Z,19.93
2019-05-09T07:58:53.017Z,21.50
2019-05-09T08:01:23.176Z,21.57
2019-05-09T08:03:52.953Z,21.60
2019-05-09T08:06:23.189Z,19.33
2019-05-09T08:08:53.010Z,20.60
2019-05-09T08:11:22.962Z,20.30
2019-05-09T08:13:52.591Z,19.90
2019-05-09T08:16:22.292Z,20.53
2019-05-09T08:18:52.704Z,21.00
2019-05-09T08:21:22.305Z,19.47
2019-05-09T08:23:52.135Z,21.10
2019-05-09T08:26:21.759Z,19.77
2019-05-09T08:28:51.375Z,18.27
2019-05-09T08:31:21.027Z,18.57
2019-05-09T08:33:50.721Z,18.07
2019-05-09T08:36:20.440Z,17.73
2019-05-09T08:39:01.058Z,18.30
2019-05-09T08:41:32.337Z,17.50
2019-05-09T08:44:02.096Z,17.90
2019-05-09T08:46:32.102Z,16.60
2019-05-09T08:49:02.033Z,17.73
2019-05-09T08:51:56.198Z,18.83
2019-05-09T08:54:33.374Z,17.70
2019-05-09T08:57:03.098Z,17.27
2019-05-09T08:59:33.581Z,18.27
2019-05-09T09:02:15.305Z,17.73
2019-05-09T09:04:35.226Z,18.37
2019-05-09T09:07:08.394Z,17.30
2019-05-09T09:09:38.102Z,17.03
2019-05-09T09:12:23.052Z,17.00
2019-05-09T09:14:39.649Z,16.80
2019-05-09T09:17:09.394Z,15.97
2019-05-09T09:19:39.338Z,15.97
2019-05-09T09:22:09.722Z,16.77
2019-05-09T09:24:39.421Z,16.03
2019-05-09T09:27:09.260Z,16.90
2019-05-09T09:29:39.134Z,15.80
2019-05-09T09:32:08.782Z,14.83
2019-05-09T09:34:38.501Z,16.60
2019-05-09T09:37:11.291Z,17.70
2019-05-09T09:39:44.392Z,16.53
2019-05-09T09:42:13.078Z,14.03
2019-05-09T09:44:42.783Z,15.00
2019-05-09T09:47:12.878Z,13.90
2019-05-09T09:49:42.645Z,15.00
2019-05-09T09:52:12.683Z,13.70
2019-05-09T09:54:43.478Z,14.67
2019-05-09T09:57:13.153Z,13.40
2019-05-09T09:59:48.387Z,14.97
2019-05-09T10:02:20.929Z,14.70
2019-05-09T10:04:50.964Z,14.27
2019-05-09T10:07:21.354Z,14.03
2019-05-09T10:09:51.051Z,13.30
2019-05-09T10:12:20.744Z,13.90
2019-05-09T10:15:08.204Z,12.40
2019-05-09T10:18:02.690Z,12.83
2019-05-09T10:20:38.877Z,13.20
2019-05-09T10:23:17.620Z,12.00
2019-05-09T10:25:39.999Z,10.10
2019-05-09T10:28:09.705Z,9.80
2019-05-09T10:30:39.325Z,9.93
2019-05-09T10:33:09.421Z,12.40
2019-05-09T10:35:39.389Z,8.07
2019-05-09T10:38:10.899Z,8.00
2019-05-09T10:40:40.593Z,7.60
2019-05-09T10:43:34.023Z,8.50
2019-05-09T10:46:19.297Z,7.00
2019-05-09T10:48:58.592Z,5.87
2019-05-09T10:51:28.831Z,5.80
2019-05-09T10:53:59.663Z,6.60
2019-05-09T10:56:29.358Z,6.10
2019-05-09T10:58:58.997Z,7.00
2019-05-09T11:01:29.454Z,7.27
2019-05-09T11:03:59.455Z,7.10
2019-05-09T11:06:29.269Z,6.33
2019-05-09T11:09:00.398Z,5.50
2019-05-09T11:11:30.222Z,5.80
2019-05-09T11:14:00.380Z,6.57
2019-05-09T11:16:42.314Z,6.17
2019-05-09T11:19:02.017Z,5.40
2019-05-09T11:21:32.054Z,10.03
2019-05-09T11:24:02.004Z,6.00
2019-05-09T11:26:33.342Z,6.10
2019-05-09T11:29:03.246Z,5.87
2019-05-09T11:31:33.622Z,6.33
2019-05-09T11:34:03.758Z,5.63
2019-05-09T11:36:33.641Z,5.17
2019-05-09T11:39:10.215Z,3.70
2019-05-09T11:41:38.380Z,4.20
2019-05-09T11:44:08.756Z,4.07
2019-05-09T11:46:39.117Z,2.40
2019-05-09T11:49:09.776Z,3.77
2019-05-09T11:51:39.725Z,3.77
2019-05-09T11:54:09.471Z,2.20
2019-05-09T11:56:39.614Z,1.97
2019-05-09T11:59:09.389Z,2.23
2019-05-09T12:01:39.926Z,1.80
2019-05-09T12:04:09.823Z,2.60
2019-05-09T12:06:39.549Z,2.40
2019-05-09T12:09:09.486Z,2.43
2019-05-09T12:11:43.968Z,1.93
2019-05-09T12:14:10.845Z,2.73
2019-05-09T12:16:40.789Z,2.03
2019-05-09T12:19:10.885Z,1.70
2019-05-09T12:21:47.448Z,2.13
2019-05-09T12:24:11.873Z,2.10
2019-05-09T12:26:41.567Z,1.60
2019-05-09T12:29:24.579Z,1.77
2019-05-09T12:31:54.659Z,1.80
2019-05-09T12:34:27.605Z,2.23
2019-05-09T12:36:58.535Z,2.40
2019-05-09T12:39:28.116Z,2.00
2019-05-09T12:41:58.013Z,1.80
2019-05-09T12:44:28.785Z,1.37
2019-05-09T12:46:58.882Z,2.40
2019-05-09T12:49:28.693Z,1.67
2019-05-09T12:51:58.858Z,1.83
2019-05-09T12:54:28.894Z,1.80
2019-05-09T12:56:59.308Z,1.60
2019-05-09T12:59:28.991Z,1.90
2019-05-09T13:01:59.630Z,1.60
2019-05-09T13:04:29.498Z,1.27
2019-05-09T13:06:59.197Z,1.40
2019-05-09T13:09:29.194Z,1.30
2019-05-09T13:11:59.489Z,1.10
2019-05-09T13:14:29.521Z,1.83
2019-05-09T13:17:08.032Z,1.40
2019-05-09T13:19:41.365Z,1.63
2019-05-09T13:22:10.999Z,2.07
2019-05-09T13:24:40.703Z,1.60
2019-05-09T13:27:10.797Z,1.27
2019-05-09T13:29:40.437Z,1.43
2019-05-09T13:32:10.170Z,1.07
2019-05-09T13:34:39.874Z,1.00
2019-05-09T13:37:09.555Z,1.30
2019-05-09T13:39:39.878Z,1.43
2019-05-09T13:42:09.685Z,1.10
2019-05-09T13:44:41.560Z,0.90
2019-05-09T13:47:11.301Z,1.23
2019-05-09T13:49:41.097Z,1.43
2019-05-09T13:52:18.942Z,1.40
2019-05-09T13:54:48.620Z,1.70
2019-05-09T13:57:19.637Z,1.50
2019-05-09T13:59:49.316Z,1.40
2019-05-09T14:02:24.807Z,1.20
2019-05-09T14:04:54.486Z,1.53
2019-05-09T14:07:24.598Z,1.60
2019-05-09T14:09:54.211Z,1.17
2019-05-09T14:12:24.852Z,1.37
2019-05-09T14:14:54.533Z,1.60
2019-05-09T14:17:45.235Z,1.40
2019-05-09T14:19:58.093Z,1.40
2019-05-09T14:22:27.857Z,1.53
2019-05-09T14:24:58.526Z,1.53
2019-05-09T14:27:28.911Z,2.10
2019-05-09T14:29:59.823Z,1.10
2019-05-09T14:32:42.901Z,1.10
2019-05-09T14:35:13.179Z,0.90
2019-05-09T14:37:44.375Z,1.00
2019-05-09T14:40:14.139Z,1.00
2019-05-09T14:42:43.994Z,1.30
2019-05-09T14:45:17.931Z,1.50
2019-05-09T14:47:58.586Z,1.23
2019-05-09T14:50:28.701Z,1.17
2019-05-09T14:52:58.682Z,1.37
2019-05-09T14:55:31.046Z,1.30
2019-05-09T14:58:00.978Z,1.30
2019-05-09T15:00:31.169Z,1.20
2019-05-09T15:03:00.970Z,1.13
2019-05-09T15:05:33.333Z,1.20
2019-05-09T15:08:05.765Z,1.27
2019-05-09T15:10:38.405Z,1.63
2019-05-09T15:13:10.128Z,1.37
2019-05-09T15:15:39.883Z,1.17
2019-05-09T15:18:10.620Z,1.30
2019-05-09T15:21:07.966Z,1.03
2019-05-09T15:23:39.207Z,1.43
2019-05-09T15:26:10.269Z,1.03
2019-05-09T15:28:40.002Z,1.30
2019-05-09T15:31:09.702Z,1.00
2019-05-09T15:33:39.446Z,0.70
2019-05-09T15:36:09.435Z,1.30
2019-05-09T15:38:40.489Z,1.07
2019-05-09T15:41:34.303Z,1.07
2019-05-09T15:44:04.371Z,1.00
2019-05-09T15:46:39.908Z,1.20
2019-05-09T15:49:09.535Z,1.30
2019-05-09T15:51:40.403Z,1.30
2019-05-09T15:54:10.057Z,1.00
2019-05-09T15:56:44.153Z,1.40
2019-05-09T15:59:14.221Z,1.20
2019-05-09T16:01:44.474Z,1.40
2019-05-09T16:04:14.434Z,1.40
2019-05-09T16:06:44.224Z,1.40
2019-05-09T16:09:14.146Z,1.90
2019-05-09T16:11:43.877Z,1.47
2019-05-09T16:14:13.626Z,1.50
2019-05-09T16:16:44.154Z,1.30
2019-05-09T16:19:16.009Z,1.30
2019-05-09T16:21:47.755Z,1.57
2019-05-09T16:24:18.800Z,2.00
2019-05-09T16:26:49.213Z,3.30
2019-05-09T16:29:18.933Z,1.77
2019-05-09T16:31:48.963Z,1.73
2019-05-09T16:34:18.699Z,1.83
2019-05-09T16:36:48.423Z,1.60
2019-05-09T16:39:18.299Z,1.80
2019-05-09T16:41:48.706Z,1.50
2019-05-09T16:44:19.604Z,1.83
2019-05-09T16:46:50.260Z,2.00
2019-05-09T16:49:20.432Z,2.30
2019-05-09T16:51:50.765Z,7.80
2019-05-09T16:54:22.466Z,3.83
2019-05-09T16:56:52.487Z,4.90
2019-05-09T16:59:22.299Z,2.57
2019-05-09T17:01:51.942Z,2.00
2019-05-09T17:04:23.838Z,1.53
2019-05-09T17:06:53.886Z,1.83
2019-05-09T17:09:24.266Z,1.77
2019-05-09T17:11:53.960Z,1.93
2019-05-09T17:14:25.164Z,1.43
2019-05-09T17:16:55.026Z,1.20
2019-05-09T17:19:24.976Z,1.40
2019-05-09T17:22:07.793Z,1.63
2019-05-09T17:24:40.511Z,1.67
2019-05-09T17:27:10.744Z,1.30
2019-05-09T17:29:40.541Z,1.63
2019-05-09T17:32:10.763Z,1.83
2019-05-09T17:34:42.463Z,2.20
2019-05-09T17:37:12.797Z,1.60
2019-05-09T17:39:42.829Z,2.47
2019-05-09T17:42:12.804Z,1.50
2019-05-09T17:44:42.890Z,1.60
2019-05-09T17:47:17.519Z,2.00
2019-05-09T17:49:48.248Z,1.60
2019-05-09T17:52:18.706Z,1.77
2019-05-09T17:54:48.901Z,1.60
2019-05-09T17:57:19.015Z,1.90
2019-05-09T17:59:49.910Z,1.37
2019-05-09T18:02:19.924Z,1.93
2019-05-09T18:04:49.977Z,1.60
2019-05-09T18:07:19.945Z,2.27
2019-05-09T18:09:49.909Z,1.80
2019-05-09T18:12:27.722Z,1.90
2019-05-09T18:14:58.980Z,2.10
2019-05-09T18:17:38.135Z,2.50
2019-05-09T18:20:08.454Z,1.90
2019-05-09T18:22:38.505Z,1.73
2019-05-09T18:25:09.054Z,1.80
2019-05-09T18:27:38.965Z,2.33
2019-05-09T18:30:09.498Z,2.37
2019-05-09T18:32:57.910Z,2.40
2019-05-09T18:35:28.370Z,2.40
2019-05-09T18:37:58.908Z,2.30
2019-05-09T18:40:28.792Z,2.43
2019-05-09T18:43:00.336Z,2.00
2019-05-09T18:45:33.624Z,2.10
2019-05-09T18:48:03.264Z,1.97
2019-05-09T18:50:33.085Z,1.70
2019-05-09T18:53:02.746Z,2.40
2019-05-09T18:55:32.471Z,2.30
2019-05-09T18:58:02.637Z,2.07
2019-05-09T19:00:33.246Z,1.80
2019-05-09T19:03:02.887Z,2.20
2019-05-09T19:05:32.727Z,2.20
2019-05-09T19:08:02.378Z,1.90
2019-05-09T19:10:33.002Z,1.97
2019-05-09T19:13:03.258Z,2.40
2019-05-09T19:15:52.129Z,1.90
2019-05-09T19:18:30.105Z,2.00
2019-05-09T19:21:15.078Z,2.10
2019-05-09T19:23:45.540Z,1.93
2019-05-09T19:26:33.049Z,1.90
2019-05-09T19:29:02.939Z,2.20
2019-05-09T19:31:33.123Z,2.70
2019-05-09T19:34:03.143Z,2.13
2019-05-09T19:36:32.889Z,2.43
2019-05-09T19:39:02.516Z,2.50
2019-05-09T19:41:32.615Z,2.40
2019-05-09T19:44:02.288Z,2.33
2019-05-09T19:46:31.953Z,2.57
2019-05-09T19:49:02.780Z,2.40
2019-05-09T19:51:32.473Z,1.87
2019-05-09T19:54:02.273Z,2.40
2019-05-09T19:56:31.917Z,2.37
2019-05-09T19:59:01.525Z,2.83
2019-05-09T20:01:31.161Z,2.80
2019-05-09T20:04:02.330Z,2.90
2019-05-09T20:06:32.277Z,2.37
2019-05-09T20:09:05.784Z,2.33
2019-05-09T20:11:46.343Z,2.40
2019-05-09T20:14:20.079Z,3.30
2019-05-09T20:16:53.903Z,2.70
2019-05-09T20:19:24.073Z,2.93
2019-05-09T20:21:56.889Z,2.63
2019-05-09T20:24:26.718Z,2.30
2019-05-09T20:26:56.401Z,2.17
2019-05-09T20:29:26.366Z,2.07
2019-05-09T20:31:56.402Z,2.20
2019-05-09T20:34:26.267Z,2.17
2019-05-09T20:36:56.100Z,2.30
2019-05-09T20:39:26.114Z,2.50
2019-05-09T20:41:56.315Z,3.20
2019-05-09T20:44:26.886Z,2.73
2019-05-09T20:46:56.817Z,2.90
2019-05-09T20:49:27.463Z,2.90
2019-05-09T20:51:57.402Z,3.10
2019-05-09T20:54:27.218Z,3.33
2019-05-09T20:56:57.016Z,2.87
2019-05-09T20:59:27.642Z,3.20
2019-05-09T21:01:57.490Z,3.20
2019-05-09T21:04:27.358Z,3.20
2019-05-09T21:06:57.140Z,4.30
2019-05-09T21:09:27.238Z,3.50
2019-05-09T21:11:57.016Z,3.10
2019-05-09T21:14:28.563Z,3.00
2019-05-09T21:16:59.398Z,3.20
2019-05-09T21:19:29.454Z,3.60
2019-05-09T21:21:59.225Z,3.10
2019-05-09T21:24:28.986Z,3.27
2019-05-09T21:26:58.808Z,3.53
2019-05-09T21:29:28.631Z,3.23
2019-05-09T21:31:58.625Z,2.90
2019-05-09T21:34:28.646Z,3.13
2019-05-09T21:36:58.507Z,3.37
2019-05-09T21:39:28.112Z,3.40
2019-05-09T21:41:57.696Z,3.30
2019-05-09T21:44:27.282Z,3.20
2019-05-09T21:46:56.916Z,3.60
2019-05-09T21:49:26.570Z,3.60
2019-05-09T21:51:56.195Z,2.80
2019-05-09T21:54:26.023Z,3.40
2019-05-09T21:56:55.869Z,2.90
2019-05-09T21:59:25.686Z,3.80
2019-05-09T22:01:55.439Z,3.10
2019-05-09T22:04:25.345Z,3.50
2019-05-09T22:06:55.291Z,3.40
2019-05-09T22:09:25.702Z,3.17
2019-05-09T22:11:55.409Z,3.30
2019-05-09T22:14:25.000Z,3.40
2019-05-09T22:16:54.687Z,3.70
2019-05-09T22:19:24.574Z,2.97
2019-05-09T22:21:54.325Z,3.40
2019-05-09T22:24:24.177Z,3.23
2019-05-09T22:26:53.736Z,3.10
2019-05-09T22:29:23.821Z,3.33
2019-05-09T22:31:53.493Z,3.53
2019-05-09T22:34:23.096Z,3.73
2019-05-09T22:36:52.726Z,3.50
2019-05-09T22:39:22.395Z,4.20
2019-05-09T22:41:52.084Z,3.83
2019-05-09T22:44:21.744Z,4.10
2019-05-09T22:46:51.317Z,4.20
2019-05-09T22:49:20.946Z,4.67
2019-05-09T22:51:50.636Z,4.93
2019-05-09T22:54:20.239Z,5.00
2019-05-09T22:56:49.885Z,4.70
2019-05-09T22:59:19.545Z,4.10
2019-05-09T23:01:49.412Z,4.17
2019-05-09T23:04:19.580Z,4.80
2019-05-09T23:06:50.128Z,4.57
2019-05-09T23:09:19.948Z,4.47
2019-05-09T23:11:50.457Z,4.20
2019-05-09T23:14:20.035Z,4.20
2019-05-09T23:16:50.706Z,4.27
2019-05-09T23:19:20.555Z,4.00
2019-05-09T23:21:50.256Z,4.20
2019-05-09T23:24:28.501Z,4.27
2019-05-09T23:26:52.640Z,5.13
2019-05-09T23:29:22.261Z,4.60
2019-05-09T23:31:58.477Z,4.73
2019-05-09T23:34:28.261Z,4.57
2019-05-09T23:36:58.366Z,3.90
2019-05-09T23:39:31.087Z,4.40
2019-05-09T23:42:00.780Z,4.00
2019-05-09T23:44:30.407Z,4.30
2019-05-09T23:46:59.956Z,4.40
2019-05-09T23:49:29.819Z,4.47
2019-05-09T23:51:59.471Z,4.37
2019-05-09T23:54:47.782Z,4.43
2019-05-09T23:57:35.594Z,4.93
